sensor_id;sensor_type;location;lat;lon;timestamp;temperature;humidity
6664;DHT22;58749;48.022;10.922;2023-03-01T00:01:57;0.70;99.90
6664;DHT22;58749;48.022;10.922;2023-03-01T00:04:25;0.70;99.90
6664;DHT22;58749;48.022;10.922;2023-03-01T00:06:54;0.80;99.90
6664;DHT22;58749;48.022;10.922;2023-03-01T00:09:22;0.80;99.90
6664;DHT22;58749;48.022;10.922;2023-03-01T00:11:52;0.80;99.90
6664;DHT22;58749;48.022;10.922;2023-03-01T00:14:21;0.80;99.90
6664;DHT22;58749;48.022;10.922;2023-03-01T00:16:52;0.80;99.90
6664;DHT22;58749;48.022;10.922;2023-03-01T00:19:20;0.80;99.90
6664;DHT22;58749;48.022;10.922;2023-03-01T00:21:49;0.80;99.90
6664;DHT22;58749;48.022;10.922;2023-03-01T00:24:21;0.70;99.90
6664;DHT22;58749;48.022;10.922;2023-03-01T00:26:54;0.70;99.90
6664;DHT22;58749;48.022;10.922;2023-03-01T00:29:23;0.70;99.90
6664;DHT22;58749;48.022;10.922;2023-03-01T00:31:53;0.70;99.90
6664;DHT22;58749;48.022;10.922;2023-03-01T00:34:24;0.70;99.90
6664;DHT22;58749;48.022;10.922;2023-03-01T00:36:54;0.60;99.90
6664;DHT22;58749;48.022;10.922;2023-03-01T00:39:35;0.80;99.90
6664;DHT22;58749;48.022;10.922;2023-03-01T00:42:03;0.80;99.90
6664;DHT22;58749;48.022;10.922;2023-03-01T00:44:31;0.70;99.90
6664;DHT22;58749;48.022;10.922;2023-03-01T00:47:02;0.80;99.90
6664;DHT22;58749;48.022;10.922;2023-03-01T00:49:31;0.80;99.90
6664;DHT22;58749;48.022;10.922;2023-03-01T00:52:01;0.80;99.90
6664;DHT22;58749;48.022;10.922;2023-03-01T00:54:30;0.80;99.90
6664;DHT22;58749;48.022;10.922;2023-03-01T00:57:01;0.70;99.90
6664;DHT22;58749;48.022;10.922;2023-03-01T00:59:29;0.80;99.90
6664;DHT22;58749;48.022;10.922;2023-03-01T01:01:58;0.80;99.90
6664;DHT22;58749;48.022;10.922;2023-03-01T01:04:30;0.70;99.90
6664;DHT22;58749;48.022;10.922;2023-03-01T01:06:59;0.70;99.90
6664;DHT22;58749;48.022;10.922;2023-03-01T01:09:27;0.70;99.90
6664;DHT22;58749;48.022;10.922;2023-03-01T01:11:56;0.70;99.90
6664;DHT22;58749;48.022;10.922;2023-03-01T01:14:27;0.70;99.90
6664;DHT22;58749;48.022;10.922;2023-03-01T01:16:55;0.70;99.90
6664;DHT22;58749;48.022;10.922;2023-03-01T01:19:25;0.70;99.90
6664;DHT22;58749;48.022;10.922;2023-03-01T01:21:54;0.70;99.90
6664;DHT22;58749;48.022;10.922;2023-03-01T01:24:26;0.70;99.90
6664;DHT22;58749;48.022;10.922;2023-03-01T01:26:54;0.70;99.90
6664;DHT22;58749;48.022;10.922;2023-03-01T01:29:26;0.70;99.90
6664;DHT22;58749;48.022;10.922;2023-03-01T01:31:54;0.60;99.90
6664;DHT22;58749;48.022;10.922;2023-03-01T01:34:25;0.60;99.90
6664;DHT22;58749;48.022;10.922;2023-03-01T01:36:55;0.60;99.90
6664;DHT22;58749;48.022;10.922;2023-03-01T01:39:23;0.60;99.90
6664;DHT22;58749;48.022;10.922;2023-03-01T01:41:52;0.60;99.90
6664;DHT22;58749;48.022;10.922;2023-03-01T01:44:22;0.70;99.90
6664;DHT22;58749;48.022;10.922;2023-03-01T01:46:55;0.60;99.90
6664;DHT22;58749;48.022;10.922;2023-03-01T01:49:32;0.60;99.90
6664;DHT22;58749;48.022;10.922;2023-03-01T01:52:10;0.60;99.90
6664;DHT22;58749;48.022;10.922;2023-03-01T01:54:43;0.60;99.90
6664;DHT22;58749;48.022;10.922;2023-03-01T01:57:16;0.60;99.90
6664;DHT22;58749;48.022;10.922;2023-03-01T01:59:50;0.80;99.90
6664;DHT22;58749;48.022;10.922;2023-03-01T02:02:21;0.80;99.90
6664;DHT22;58749;48.022;10.922;2023-03-01T02:04:53;0.80;99.90
6664;DHT22;58749;48.022;10.922;2023-03-01T02:07:27;0.70;99.90
6664;DHT22;58749;48.022;10.922;2023-03-01T02:09:56;0.60;99.90
6664;DHT22;58749;48.022;10.922;2023-03-01T02:12:25;0.60;99.90
6664;DHT22;58749;48.022;10.922;2023-03-01T02:14:54;0.50;99.90
6664;DHT22;58749;48.022;10.922;2023-03-01T02:17:22;0.60;99.90
6664;DHT22;58749;48.022;10.922;2023-03-01T02:20:01;0.50;99.90
6664;DHT22;58749;48.022;10.922;2023-03-01T02:22:37;0.50;99.90
6664;DHT22;58749;48.022;10.922;2023-03-01T02:25:12;0.60;99.90
6664;DHT22;58749;48.022;10.922;2023-03-01T02:27:51;0.60;99.90
6664;DHT22;58749;48.022;10.922;2023-03-01T02:30:22;0.60;99.90
6664;DHT22;58749;48.022;10.922;2023-03-01T02:32:53;0.50;99.90
6664;DHT22;58749;48.022;10.922;2023-03-01T02:35:24;0.50;99.90
6664;DHT22;58749;48.022;10.922;2023-03-01T02:37:56;0.50;99.90
6664;DHT22;58749;48.022;10.922;2023-03-01T02:40:28;0.50;99.90
6664;DHT22;58749;48.022;10.922;2023-03-01T02:42:58;0.50;99.90
6664;DHT22;58749;48.022;10.922;2023-03-01T02:45:28;0.50;99.90
6664;DHT22;58749;48.022;10.922;2023-03-01T02:47:57;0.40;99.90
6664;DHT22;58749;48.022;10.922;2023-03-01T02:50:44;0.40;99.90
6664;DHT22;58749;48.022;10.922;2023-03-01T02:53:19;0.40;99.90
6664;DHT22;58749;48.022;10.922;2023-03-01T02:55:50;0.40;99.90
6664;DHT22;58749;48.022;10.922;2023-03-01T02:58:18;0.40;99.90
6664;DHT22;58749;48.022;10.922;2023-03-01T03:00:48;0.40;99.90
6664;DHT22;58749;48.022;10.922;2023-03-01T03:03:20;0.40;99.90
6664;DHT22;58749;48.022;10.922;2023-03-01T03:05:48;0.30;99.90
6664;DHT22;58749;48.022;10.922;2023-03-01T03:08:17;0.40;99.90
6664;DHT22;58749;48.022;10.922;2023-03-01T03:10:53;0.40;99.90
6664;DHT22;58749;48.022;10.922;2023-03-01T03:13:21;0.30;99.90
6664;DHT22;58749;48.022;10.922;2023-03-01T03:15:57;0.30;99.90
6664;DHT22;58749;48.022;10.922;2023-03-01T03:18:25;0.30;99.90
6664;DHT22;58749;48.022;10.922;2023-03-01T03:20:54;0.40;99.90
6664;DHT22;58749;48.022;10.922;2023-03-01T03:23:24;0.30;99.90
6664;DHT22;58749;48.022;10.922;2023-03-01T03:25:55;0.40;99.90
6664;DHT22;58749;48.022;10.922;2023-03-01T03:28:23;0.40;99.90
6664;DHT22;58749;48.022;10.922;2023-03-01T03:30:56;0.40;99.90
6664;DHT22;58749;48.022;10.922;2023-03-01T03:33:31;0.30;99.90
6664;DHT22;58749;48.022;10.922;2023-03-01T03:35:59;0.30;99.90
6664;DHT22;58749;48.022;10.922;2023-03-01T03:38:27;0.40;99.90
6664;DHT22;58749;48.022;10.922;2023-03-01T03:41:01;0.40;99.90
6664;DHT22;58749;48.022;10.922;2023-03-01T03:43:35;0.40;99.90
6664;DHT22;58749;48.022;10.922;2023-03-01T03:46:05;0.40;99.90
6664;DHT22;58749;48.022;10.922;2023-03-01T03:48:37;0.40;99.90
6664;DHT22;58749;48.022;10.922;2023-03-01T03:51:10;0.40;99.90
6664;DHT22;58749;48.022;10.922;2023-03-01T03:53:42;0.40;99.90
6664;DHT22;58749;48.022;10.922;2023-03-01T03:56:13;0.40;99.90
6664;DHT22;58749;48.022;10.922;2023-03-01T03:58:41;0.30;99.90
6664;DHT22;58749;48.022;10.922;2023-03-01T04:01:11;0.40;99.90
6664;DHT22;58749;48.022;10.922;2023-03-01T04:03:39;0.40;99.90
6664;DHT22;58749;48.022;10.922;2023-03-01T04:06:08;0.30;99.90
6664;DHT22;58749;48.022;10.922;2023-03-01T04:08:38;0.30;99.90
6664;DHT22;58749;48.022;10.922;2023-03-01T04:11:07;0.30;99.90
6664;DHT22;58749;48.022;10.922;2023-03-01T04:13:54;0.30;99.90
6664;DHT22;58749;48.022;10.922;2023-03-01T04:16:28;0.30;99.90
6664;DHT22;58749;48.022;10.922;2023-03-01T04:18:57;0.30;99.90
6664;DHT22;58749;48.022;10.922;2023-03-01T04:21:27;0.30;99.90
6664;DHT22;58749;48.022;10.922;2023-03-01T04:23:56;0.20;99.90
6664;DHT22;58749;48.022;10.922;2023-03-01T04:26:24;0.30;99.90
6664;DHT22;58749;48.022;10.922;2023-03-01T04:28:56;0.30;99.90
6664;DHT22;58749;48.022;10.922;2023-03-01T04:31:24;0.30;99.90
6664;DHT22;58749;48.022;10.922;2023-03-01T04:33:56;0.30;99.90
6664;DHT22;58749;48.022;10.922;2023-03-01T04:36:26;0.20;99.90
6664;DHT22;58749;48.022;10.922;2023-03-01T04:38:57;0.20;99.90
6664;DHT22;58749;48.022;10.922;2023-03-01T04:41:26;0.30;99.90
6664;DHT22;58749;48.022;10.922;2023-03-01T04:43:54;0.20;99.90
6664;DHT22;58749;48.022;10.922;2023-03-01T04:46:25;0.30;99.90
6664;DHT22;58749;48.022;10.922;2023-03-01T04:49:03;0.20;99.90
6664;DHT22;58749;48.022;10.922;2023-03-01T04:51:33;0.30;99.90
6664;DHT22;58749;48.022;10.922;2023-03-01T04:54:01;0.30;99.90
6664;DHT22;58749;48.022;10.922;2023-03-01T04:56:31;0.30;99.90
6664;DHT22;58749;48.022;10.922;2023-03-01T04:59:00;0.30;99.90
6664;DHT22;58749;48.022;10.922;2023-03-01T05:01:32;0.30;99.90
6664;DHT22;58749;48.022;10.922;2023-03-01T05:04:04;0.20;99.90
6664;DHT22;58749;48.022;10.922;2023-03-01T05:06:35;0.20;99.90
6664;DHT22;58749;48.022;10.922;2023-03-01T05:09:04;0.30;99.90
6664;DHT22;58749;48.022;10.922;2023-03-01T05:11:35;0.20;99.90
6664;DHT22;58749;48.022;10.922;2023-03-01T05:14:04;0.20;99.90
6664;DHT22;58749;48.022;10.922;2023-03-01T05:16:36;0.30;99.90
6664;DHT22;58749;48.022;10.922;2023-03-01T05:19:06;0.30;99.90
6664;DHT22;58749;48.022;10.922;2023-03-01T05:21:38;0.30;99.90
6664;DHT22;58749;48.022;10.922;2023-03-01T05:24:30;0.30;99.90
6664;DHT22;58749;48.022;10.922;2023-03-01T05:26:59;0.30;99.90
6664;DHT22;58749;48.022;10.922;2023-03-01T05:29:28;0.30;99.90
6664;DHT22;58749;48.022;10.922;2023-03-01T05:32:04;0.20;99.90
6664;DHT22;58749;48.022;10.922;2023-03-01T05:34:54;0.20;99.90
6664;DHT22;58749;48.022;10.922;2023-03-01T05:37:22;0.20;99.90
6664;DHT22;58749;48.022;10.922;2023-03-01T05:39:52;0.10;99.90
6664;DHT22;58749;48.022;10.922;2023-03-01T05:42:20;0.20;99.90
6664;DHT22;58749;48.022;10.922;2023-03-01T05:44:48;0.20;99.90
6664;DHT22;58749;48.022;10.922;2023-03-01T05:47:16;0.10;99.90
6664;DHT22;58749;48.022;10.922;2023-03-01T05:49:44;0.20;99.90
6664;DHT22;58749;48.022;10.922;2023-03-01T05:52:14;0.20;99.90
6664;DHT22;58749;48.022;10.922;2023-03-01T05:54:42;0.20;99.90
6664;DHT22;58749;48.022;10.922;2023-03-01T05:57:10;0.20;99.90
6664;DHT22;58749;48.022;10.922;2023-03-01T05:59:38;0.20;99.90
6664;DHT22;58749;48.022;10.922;2023-03-01T06:02:06;0.20;99.90
6664;DHT22;58749;48.022;10.922;2023-03-01T06:04:35;0.20;99.90
6664;DHT22;58749;48.022;10.922;2023-03-01T06:07:03;0.30;99.90
6664;DHT22;58749;48.022;10.922;2023-03-01T06:09:32;0.30;99.90
6664;DHT22;58749;48.022;10.922;2023-03-01T06:12:00;0.30;99.90
6664;DHT22;58749;48.022;10.922;2023-03-01T06:14:28;0.30;99.90
6664;DHT22;58749;48.022;10.922;2023-03-01T06:16:57;0.30;99.90
6664;DHT22;58749;48.022;10.922;2023-03-01T06:19:25;0.20;99.90
6664;DHT22;58749;48.022;10.922;2023-03-01T06:21:54;0.20;99.90
6664;DHT22;58749;48.022;10.922;2023-03-01T06:24:22;0.20;99.90
6664;DHT22;58749;48.022;10.922;2023-03-01T06:26:52;0.30;99.90
6664;DHT22;58749;48.022;10.922;2023-03-01T06:29:22;0.20;99.90
6664;DHT22;58749;48.022;10.922;2023-03-01T06:31:50;0.20;99.90
6664;DHT22;58749;48.022;10.922;2023-03-01T06:34:18;0.20;99.90
6664;DHT22;58749;48.022;10.922;2023-03-01T06:36:48;0.20;99.90
6664;DHT22;58749;48.022;10.922;2023-03-01T06:39:16;0.10;99.90
6664;DHT22;58749;48.022;10.922;2023-03-01T06:41:45;0.20;99.90
6664;DHT22;58749;48.022;10.922;2023-03-01T06:44:15;0.20;99.90
6664;DHT22;58749;48.022;10.922;2023-03-01T06:46:43;0.30;99.90
6664;DHT22;58749;48.022;10.922;2023-03-01T06:49:11;0.30;99.90
6664;DHT22;58749;48.022;10.922;2023-03-01T06:51:39;0.30;99.90
6664;DHT22;58749;48.022;10.922;2023-03-01T06:54:07;0.20;99.90
6664;DHT22;58749;48.022;10.922;2023-03-01T06:56:36;0.20;99.90
6664;DHT22;58749;48.022;10.922;2023-03-01T06:59:04;0.20;99.90
6664;DHT22;58749;48.022;10.922;2023-03-01T07:01:34;0.20;99.90
6664;DHT22;58749;48.022;10.922;2023-03-01T07:04:02;0.20;99.90
6664;DHT22;58749;48.022;10.922;2023-03-01T07:06:30;0.10;99.90
6664;DHT22;58749;48.022;10.922;2023-03-01T07:08:59;0.10;99.90
6664;DHT22;58749;48.022;10.922;2023-03-01T07:11:27;0.10;99.90
6664;DHT22;58749;48.022;10.922;2023-03-01T07:13:55;0.20;99.90
6664;DHT22;58749;48.022;10.922;2023-03-01T07:16:26;0.20;99.90
6664;DHT22;58749;48.022;10.922;2023-03-01T07:18:56;0.20;99.90
6664;DHT22;58749;48.022;10.922;2023-03-01T07:21:26;0.20;99.90
6664;DHT22;58749;48.022;10.922;2023-03-01T07:23:54;0.20;99.90
6664;DHT22;58749;48.022;10.922;2023-03-01T07:26:23;0.20;99.90
6664;DHT22;58749;48.022;10.922;2023-03-01T07:28:52;0.20;99.90
6664;DHT22;58749;48.022;10.922;2023-03-01T07:31:20;0.20;99.90
6664;DHT22;58749;48.022;10.922;2023-03-01T07:33:48;0.20;99.90
6664;DHT22;58749;48.022;10.922;2023-03-01T07:36:18;0.30;99.90
6664;DHT22;58749;48.022;10.922;2023-03-01T07:38:46;0.20;99.90
6664;DHT22;58749;48.022;10.922;2023-03-01T07:41:14;0.20;99.90
6664;DHT22;58749;48.022;10.922;2023-03-01T07:43:42;0.20;99.90
6664;DHT22;58749;48.022;10.922;2023-03-01T07:46:10;0.20;99.90
6664;DHT22;58749;48.022;10.922;2023-03-01T07:48:38;0.30;99.90
6664;DHT22;58749;48.022;10.922;2023-03-01T07:51:07;0.30;99.90
6664;DHT22;58749;48.022;10.922;2023-03-01T07:53:37;0.40;99.90
6664;DHT22;58749;48.022;10.922;2023-03-01T07:56:06;0.40;99.90
6664;DHT22;58749;48.022;10.922;2023-03-01T07:58:35;0.40;99.90
6664;DHT22;58749;48.022;10.922;2023-03-01T08:01:04;0.50;99.90
6664;DHT22;58749;48.022;10.922;2023-03-01T08:03:33;0.50;99.90
6664;DHT22;58749;48.022;10.922;2023-03-01T08:06:02;0.60;99.90
6664;DHT22;58749;48.022;10.922;2023-03-01T08:08:31;0.60;99.90
6664;DHT22;58749;48.022;10.922;2023-03-01T08:11:02;0.70;99.90
6664;DHT22;58749;48.022;10.922;2023-03-01T08:13:31;0.70;99.90
6664;DHT22;58749;48.022;10.922;2023-03-01T08:16:11;0.70;99.90
6664;DHT22;58749;48.022;10.922;2023-03-01T08:18:43;0.80;99.90
6664;DHT22;58749;48.022;10.922;2023-03-01T08:21:16;0.90;99.90
6664;DHT22;58749;48.022;10.922;2023-03-01T08:23:45;0.90;99.90
6664;DHT22;58749;48.022;10.922;2023-03-01T08:26:24;0.90;99.90
6664;DHT22;58749;48.022;10.922;2023-03-01T08:28:56;0.90;99.90
6664;DHT22;58749;48.022;10.922;2023-03-01T08:31:26;1.00;99.90
6664;DHT22;58749;48.022;10.922;2023-03-01T08:33:59;1.00;99.90
6664;DHT22;58749;48.022;10.922;2023-03-01T08:36:35;1.10;99.90
6664;DHT22;58749;48.022;10.922;2023-03-01T08:39:04;1.20;99.90
6664;DHT22;58749;48.022;10.922;2023-03-01T08:41:54;1.20;99.90
6664;DHT22;58749;48.022;10.922;2023-03-01T08:44:32;1.20;99.90
6664;DHT22;58749;48.022;10.922;2023-03-01T08:47:03;1.20;99.90
6664;DHT22;58749;48.022;10.922;2023-03-01T08:49:42;1.20;99.90
6664;DHT22;58749;48.022;10.922;2023-03-01T08:52:10;1.30;99.90
6664;DHT22;58749;48.022;10.922;2023-03-01T08:57:27;1.30;99.90
6664;DHT22;58749;48.022;10.922;2023-03-01T09:03:09;1.30;99.90
6664;DHT22;58749;48.022;10.922;2023-03-01T09:05:43;1.40;99.90
6664;DHT22;58749;48.022;10.922;2023-03-01T09:08:13;1.40;99.90
6664;DHT22;58749;48.022;10.922;2023-03-01T09:10:55;1.50;99.90
6664;DHT22;58749;48.022;10.922;2023-03-01T09:13:33;1.50;99.90
6664;DHT22;58749;48.022;10.922;2023-03-01T09:16:12;1.50;99.90
6664;DHT22;58749;48.022;10.922;2023-03-01T09:18:41;1.60;99.90
6664;DHT22;58749;48.022;10.922;2023-03-01T09:21:14;1.70;99.90
6664;DHT22;58749;48.022;10.922;2023-03-01T09:24:06;1.80;99.90
6664;DHT22;58749;48.022;10.922;2023-03-01T09:26:42;1.90;99.90
6664;DHT22;58749;48.022;10.922;2023-03-01T09:29:39;1.80;99.90
6664;DHT22;58749;48.022;10.922;2023-03-01T09:32:17;1.80;99.90
6664;DHT22;58749;48.022;10.922;2023-03-01T09:34:54;1.80;99.90
6664;DHT22;58749;48.022;10.922;2023-03-01T09:37:38;1.90;99.90
6664;DHT22;58749;48.022;10.922;2023-03-01T09:40:19;2.00;99.90
6664;DHT22;58749;48.022;10.922;2023-03-01T09:43:21;2.00;99.90
6664;DHT22;58749;48.022;10.922;2023-03-01T09:45:57;2.00;99.90
6664;DHT22;58749;48.022;10.922;2023-03-01T09:48:29;1.90;99.90
6664;DHT22;58749;48.022;10.922;2023-03-01T09:51:07;2.00;99.90
6664;DHT22;58749;48.022;10.922;2023-03-01T09:53:37;1.90;99.90
6664;DHT22;58749;48.022;10.922;2023-03-01T09:56:27;1.80;99.90
6664;DHT22;58749;48.022;10.922;2023-03-01T09:59:02;1.80;99.90
6664;DHT22;58749;48.022;10.922;2023-03-01T10:02:23;1.80;99.90
6664;DHT22;58749;48.022;10.922;2023-03-01T10:05:30;1.90;99.90
6664;DHT22;58749;48.022;10.922;2023-03-01T10:17:55;2.00;99.90
6664;DHT22;58749;48.022;10.922;2023-03-01T10:20:33;2.00;99.90
6664;DHT22;58749;48.022;10.922;2023-03-01T10:23:51;2.00;99.90
6664;DHT22;58749;48.022;10.922;2023-03-01T10:26:55;2.00;99.90
6664;DHT22;58749;48.022;10.922;2023-03-01T10:29:41;1.90;99.90
6664;DHT22;58749;48.022;10.922;2023-03-01T10:32:43;1.90;99.90
6664;DHT22;58749;48.022;10.922;2023-03-01T10:38:47;2.00;99.90
6664;DHT22;58749;48.022;10.922;2023-03-01T10:41:22;2.10;99.90
6664;DHT22;58749;48.022;10.922;2023-03-01T10:43:53;2.20;99.90
6664;DHT22;58749;48.022;10.922;2023-03-01T10:46:28;2.30;99.90
6664;DHT22;58749;48.022;10.922;2023-03-01T10:49:15;2.40;99.90
6664;DHT22;58749;48.022;10.922;2023-03-01T10:51:48;2.40;99.90
6664;DHT22;58749;48.022;10.922;2023-03-01T10:54:22;2.50;99.90
6664;DHT22;58749;48.022;10.922;2023-03-01T10:57:03;2.50;99.90
6664;DHT22;58749;48.022;10.922;2023-03-01T10:59:34;2.60;99.90
6664;DHT22;58749;48.022;10.922;2023-03-01T11:02:16;2.60;99.90
6664;DHT22;58749;48.022;10.922;2023-03-01T11:05:00;2.60;99.90
6664;DHT22;58749;48.022;10.922;2023-03-01T11:07:49;2.50;99.90
6664;DHT22;58749;48.022;10.922;2023-03-01T11:10:20;2.50;99.90
6664;DHT22;58749;48.022;10.922;2023-03-01T11:13:06;2.60;99.90
6664;DHT22;58749;48.022;10.922;2023-03-01T11:15:35;2.70;99.90
6664;DHT22;58749;48.022;10.922;2023-03-01T11:18:20;2.70;99.90
6664;DHT22;58749;48.022;10.922;2023-03-01T11:21:15;2.70;99.90
6664;DHT22;58749;48.022;10.922;2023-03-01T11:23:52;2.80;99.90
6664;DHT22;58749;48.022;10.922;2023-03-01T11:26:31;2.90;99.90
6664;DHT22;58749;48.022;10.922;2023-03-01T11:29:06;3.00;99.90
6664;DHT22;58749;48.022;10.922;2023-03-01T11:31:42;3.10;99.90
6664;DHT22;58749;48.022;10.922;2023-03-01T11:34:46;3.20;99.90
6664;DHT22;58749;48.022;10.922;2023-03-01T11:37:31;3.30;99.90
6664;DHT22;58749;48.022;10.922;2023-03-01T11:40:13;3.30;99.90
6664;DHT22;58749;48.022;10.922;2023-03-01T11:42:51;3.30;99.90
6664;DHT22;58749;48.022;10.922;2023-03-01T11:45:33;3.40;99.90
6664;DHT22;58749;48.022;10.922;2023-03-01T11:48:29;3.50;99.90
6664;DHT22;58749;48.022;10.922;2023-03-01T11:51:21;3.50;99.90
6664;DHT22;58749;48.022;10.922;2023-03-01T11:54:06;3.60;99.90
6664;DHT22;58749;48.022;10.922;2023-03-01T11:56:43;3.50;99.90
6664;DHT22;58749;48.022;10.922;2023-03-01T12:02:59;3.40;99.90
6664;DHT22;58749;48.022;10.922;2023-03-01T12:05:54;3.50;99.90
6664;DHT22;58749;48.022;10.922;2023-03-01T12:08:35;3.60;99.90
6664;DHT22;58749;48.022;10.922;2023-03-01T12:11:15;3.60;99.90
6664;DHT22;58749;48.022;10.922;2023-03-01T12:14:37;3.60;99.90
6664;DHT22;58749;48.022;10.922;2023-03-01T12:17:29;3.70;99.90
6664;DHT22;58749;48.022;10.922;2023-03-01T12:20:12;3.80;99.90
6664;DHT22;58749;48.022;10.922;2023-03-01T12:22:57;3.80;99.90
6664;DHT22;58749;48.022;10.922;2023-03-01T12:25:51;3.90;99.90
6664;DHT22;58749;48.022;10.922;2023-03-01T12:32:00;3.90;99.90
6664;DHT22;58749;48.022;10.922;2023-03-01T12:34:42;3.80;99.90
6664;DHT22;58749;48.022;10.922;2023-03-01T12:37:25;3.70;99.90
6664;DHT22;58749;48.022;10.922;2023-03-01T12:40:11;3.60;99.90
6664;DHT22;58749;48.022;10.922;2023-03-01T12:42:47;3.50;99.90
6664;DHT22;58749;48.022;10.922;2023-03-01T12:45:32;3.40;99.90
6664;DHT22;58749;48.022;10.922;2023-03-01T12:48:17;3.40;99.90
6664;DHT22;58749;48.022;10.922;2023-03-01T12:50:51;3.50;99.90
6664;DHT22;58749;48.022;10.922;2023-03-01T12:53:24;3.50;99.90
6664;DHT22;58749;48.022;10.922;2023-03-01T12:55:53;3.60;99.90
6664;DHT22;58749;48.022;10.922;2023-03-01T12:58:27;3.60;99.90
6664;DHT22;58749;48.022;10.922;2023-03-01T13:01:22;3.80;99.90
6664;DHT22;58749;48.022;10.922;2023-03-01T13:04:16;3.90;99.90
6664;DHT22;58749;48.022;10.922;2023-03-01T13:06:54;4.10;99.90
6664;DHT22;58749;48.022;10.922;2023-03-01T13:09:29;4.20;99.90
6664;DHT22;58749;48.022;10.922;2023-03-01T13:11:58;4.30;99.90
6664;DHT22;58749;48.022;10.922;2023-03-01T13:14:51;4.40;99.90
6664;DHT22;58749;48.022;10.922;2023-03-01T13:17:41;4.60;99.90
6664;DHT22;58749;48.022;10.922;2023-03-01T13:20:18;4.70;99.90
6664;DHT22;58749;48.022;10.922;2023-03-01T13:22:47;4.80;99.90
6664;DHT22;58749;48.022;10.922;2023-03-01T13:25:25;4.80;99.90
6664;DHT22;58749;48.022;10.922;2023-03-01T13:31:13;4.80;99.90
6664;DHT22;58749;48.022;10.922;2023-03-01T13:33:59;4.80;99.90
6664;DHT22;58749;48.022;10.922;2023-03-01T13:36:48;4.80;99.90
6664;DHT22;58749;48.022;10.922;2023-03-01T13:39:28;4.90;99.90
6664;DHT22;58749;48.022;10.922;2023-03-01T13:41:59;4.90;99.90
6664;DHT22;58749;48.022;10.922;2023-03-01T13:44:30;4.90;99.90
6664;DHT22;58749;48.022;10.922;2023-03-01T13:47:05;4.80;99.90
6664;DHT22;58749;48.022;10.922;2023-03-01T13:49:43;4.80;99.90
6664;DHT22;58749;48.022;10.922;2023-03-01T13:52:36;4.80;99.90
6664;DHT22;58749;48.022;10.922;2023-03-01T13:55:16;4.80;99.90
6664;DHT22;58749;48.022;10.922;2023-03-01T13:57:47;4.70;99.90
6664;DHT22;58749;48.022;10.922;2023-03-01T14:00:30;4.70;99.90
6664;DHT22;58749;48.022;10.922;2023-03-01T14:03:13;4.70;99.90
6664;DHT22;58749;48.022;10.922;2023-03-01T14:05:43;4.60;99.90
6664;DHT22;58749;48.022;10.922;2023-03-01T14:08:21;4.60;99.90
6664;DHT22;58749;48.022;10.922;2023-03-01T14:10:58;4.70;99.90
6664;DHT22;58749;48.022;10.922;2023-03-01T14:13:39;4.60;99.90
6664;DHT22;58749;48.022;10.922;2023-03-01T14:16:22;4.50;99.90
6664;DHT22;58749;48.022;10.922;2023-03-01T14:19:01;4.50;99.90
6664;DHT22;58749;48.022;10.922;2023-03-01T14:21:31;4.50;99.90
6664;DHT22;58749;48.022;10.922;2023-03-01T14:24:00;4.40;99.90
6664;DHT22;58749;48.022;10.922;2023-03-01T14:26:29;4.40;99.90
6664;DHT22;58749;48.022;10.922;2023-03-01T14:28:58;4.40;99.90
6664;DHT22;58749;48.022;10.922;2023-03-01T14:31:34;4.40;99.90
6664;DHT22;58749;48.022;10.922;2023-03-01T14:34:20;4.30;99.90
6664;DHT22;58749;48.022;10.922;2023-03-01T14:36:48;4.30;99.90
6664;DHT22;58749;48.022;10.922;2023-03-01T14:39:20;4.30;99.90
6664;DHT22;58749;48.022;10.922;2023-03-01T14:41:52;4.20;99.90
6664;DHT22;58749;48.022;10.922;2023-03-01T14:44:24;4.20;99.90
6664;DHT22;58749;48.022;10.922;2023-03-01T14:46:53;4.10;99.90
6664;DHT22;58749;48.022;10.922;2023-03-01T14:49:25;4.10;99.90
6664;DHT22;58749;48.022;10.922;2023-03-01T14:51:58;4.10;99.90
6664;DHT22;58749;48.022;10.922;2023-03-01T14:54:36;4.10;99.90
6664;DHT22;58749;48.022;10.922;2023-03-01T14:57:05;4.00;99.90
6664;DHT22;58749;48.022;10.922;2023-03-01T14:59:33;4.00;99.90
6664;DHT22;58749;48.022;10.922;2023-03-01T15:02:02;4.00;99.90
6664;DHT22;58749;48.022;10.922;2023-03-01T15:04:30;3.90;99.90
6664;DHT22;58749;48.022;10.922;2023-03-01T15:07:00;4.00;99.90
6664;DHT22;58749;48.022;10.922;2023-03-01T15:09:34;3.90;99.90
6664;DHT22;58749;48.022;10.922;2023-03-01T15:15:35;3.80;99.90
6664;DHT22;58749;48.022;10.922;2023-03-01T15:18:13;3.80;99.90
6664;DHT22;58749;48.022;10.922;2023-03-01T15:20:41;3.70;99.90
6664;DHT22;58749;48.022;10.922;2023-03-01T15:23:22;3.80;99.90
6664;DHT22;58749;48.022;10.922;2023-03-01T15:25:53;3.70;99.90
6664;DHT22;58749;48.022;10.922;2023-03-01T15:28:27;3.70;99.90
6664;DHT22;58749;48.022;10.922;2023-03-01T15:31:00;3.70;99.90
6664;DHT22;58749;48.022;10.922;2023-03-01T15:33:33;3.80;99.90
6664;DHT22;58749;48.022;10.922;2023-03-01T15:36:03;4.00;99.90
6664;DHT22;58749;48.022;10.922;2023-03-01T15:38:35;4.20;99.90
6664;DHT22;58749;48.022;10.922;2023-03-01T15:41:23;4.40;99.90
6664;DHT22;58749;48.022;10.922;2023-03-01T15:43:53;4.60;99.90
6664;DHT22;58749;48.022;10.922;2023-03-01T15:46:25;4.70;99.90
6664;DHT22;58749;48.022;10.922;2023-03-01T15:48:56;4.80;99.90
6664;DHT22;58749;48.022;10.922;2023-03-01T15:51:31;4.90;99.90
6664;DHT22;58749;48.022;10.922;2023-03-01T15:54:04;5.00;99.90
6664;DHT22;58749;48.022;10.922;2023-03-01T15:56:34;5.00;99.90
6664;DHT22;58749;48.022;10.922;2023-03-01T15:59:02;5.00;99.90
6664;DHT22;58749;48.022;10.922;2023-03-01T16:01:31;5.00;99.90
6664;DHT22;58749;48.022;10.922;2023-03-01T16:04:01;5.00;99.90
6664;DHT22;58749;48.022;10.922;2023-03-01T16:06:30;5.10;99.90
6664;DHT22;58749;48.022;10.922;2023-03-01T16:08:58;5.10;99.90
6664;DHT22;58749;48.022;10.922;2023-03-01T16:11:27;5.10;99.90
6664;DHT22;58749;48.022;10.922;2023-03-01T16:13:56;5.10;99.90
6664;DHT22;58749;48.022;10.922;2023-03-01T16:16:24;5.00;99.90
6664;DHT22;58749;48.022;10.922;2023-03-01T16:18:52;5.00;99.90
6664;DHT22;58749;48.022;10.922;2023-03-01T16:21:23;4.90;99.90
6664;DHT22;58749;48.022;10.922;2023-03-01T16:23:52;4.80;99.90
6664;DHT22;58749;48.022;10.922;2023-03-01T16:26:20;4.80;99.90
6664;DHT22;58749;48.022;10.922;2023-03-01T16:28:49;4.80;99.90
6664;DHT22;58749;48.022;10.922;2023-03-01T16:31:19;4.70;99.90
6664;DHT22;58749;48.022;10.922;2023-03-01T16:33:48;4.70;99.90
6664;DHT22;58749;48.022;10.922;2023-03-01T16:36:20;4.60;99.90
6664;DHT22;58749;48.022;10.922;2023-03-01T16:38:50;4.60;99.90
6664;DHT22;58749;48.022;10.922;2023-03-01T16:41:21;4.60;99.90
6664;DHT22;58749;48.022;10.922;2023-03-01T16:43:50;4.40;99.90
6664;DHT22;58749;48.022;10.922;2023-03-01T16:46:23;4.40;99.90
6664;DHT22;58749;48.022;10.922;2023-03-01T16:48:52;4.30;99.90
6664;DHT22;58749;48.022;10.922;2023-03-01T16:51:21;4.20;99.90
6664;DHT22;58749;48.022;10.922;2023-03-01T16:53:51;4.10;99.90
6664;DHT22;58749;48.022;10.922;2023-03-01T16:56:19;4.10;99.90
6664;DHT22;58749;48.022;10.922;2023-03-01T16:58:48;4.10;99.90
6664;DHT22;58749;48.022;10.922;2023-03-01T17:01:19;4.00;99.90